WZZ1213 LRCL-ESMS
Flight info
| Callsign | WZZ1213 |
|---|---|
| Flight time | N/A |
| Altitude | 38000 |
| Route | LARMU DCT KARIL DCT KENIN DCT LENOV DCT BABEN L617 KOLOB/N0420F280 L617 ROE |
| Aircraft | A20N/M-SDE2E3FGHIRWXY/LB1 |
Departure
| Time | 2026-04-26 12:59 |
|---|---|
| Airport | Avram Iancu Cluj International Airport (LRCL) |
Arrival
| Time | N/A |
|---|---|
| Airport | Malmö Sturup Airport (ESMS) |
| Time | Latitude | Longitude | Altitude | Speed | Heading |
|---|---|---|---|---|---|
| 2026-04-26 12:49 | 46.78577 | 23.69403 | 1026 ft | 0 kts | 193° |
| 2026-04-26 12:52 | 46.78579 | 23.69404 | 1027 ft | 3 kts | 193° |
| 2026-04-26 12:52 | 46.78585 | 23.69405 | 1025 ft | 0 kts | 193° |
| 2026-04-26 12:54 | 46.78584 | 23.69403 | 1029 ft | 0 kts | 210° |
| 2026-04-26 12:54 | 46.78580 | 23.69391 | 1027 ft | 3 kts | 251° |
| 2026-04-26 12:55 | 46.78594 | 23.69365 | 1027 ft | 5 kts | 322° |
| 2026-04-26 12:55 | 46.78607 | 23.69371 | 1028 ft | 4 kts | 41° |
| 2026-04-26 12:55 | 46.78624 | 23.69424 | 1027 ft | 8 kts | 76° |
| 2026-04-26 12:55 | 46.78637 | 23.69520 | 1028 ft | 12 kts | 79° |
| 2026-04-26 12:56 | 46.78655 | 23.69655 | 1023 ft | 16 kts | 79° |
| 2026-04-26 12:56 | 46.78714 | 23.69790 | 1025 ft | 17 kts | 13° |
| 2026-04-26 12:56 | 46.78814 | 23.69763 | 1026 ft | 12 kts | 352° |
| 2026-04-26 12:56 | 46.78884 | 23.69751 | 1026 ft | 8 kts | 356° |
| 2026-04-26 12:57 | 46.78930 | 23.69738 | 1023 ft | 6 kts | 333° |
| 2026-04-26 12:57 | 46.78962 | 23.69715 | 1027 ft | 4 kts | 333° |
| 2026-04-26 12:57 | 46.78984 | 23.69698 | 1025 ft | 4 kts | 333° |
| 2026-04-26 12:58 | 46.79010 | 23.69580 | 1026 ft | 11 kts | 252° |
| 2026-04-26 12:58 | 46.78926 | 23.69177 | 1029 ft | 73 kts | 251° |
| 2026-04-26 12:58 | 46.78701 | 23.68201 | 1034 ft | 129 kts | 252° |
| 2026-04-26 12:58 | 46.78380 | 23.66837 | 1296 ft | 144 kts | 259° |
| 2026-04-26 12:59 | 46.78029 | 23.65470 | 1826 ft | 145 kts | 257° |
| 2026-04-26 12:59 | 46.77615 | 23.64119 | 2384 ft | 148 kts | 257° |
| 2026-04-26 12:59 | 46.77226 | 23.62681 | 2914 ft | 160 kts | 258° |
| 2026-04-26 12:59 | 46.76857 | 23.61057 | 3356 ft | 179 kts | 262° |
| 2026-04-26 13:00 | 46.76516 | 23.59193 | 3684 ft | 201 kts | 261° |
| 2026-04-26 13:00 | 46.76093 | 23.57172 | 4177 ft | 212 kts | 259° |
| 2026-04-26 13:00 | 46.75636 | 23.55069 | 4683 ft | 224 kts | 259° |
| 2026-04-26 13:00 | 46.75150 | 23.52838 | 5143 ft | 239 kts | 258° |
| 2026-04-26 13:01 | 46.74628 | 23.50448 | 5676 ft | 252 kts | 258° |
| 2026-04-26 13:01 | 46.74116 | 23.47996 | 6508 ft | 252 kts | 263° |
| 2026-04-26 13:01 | 46.73997 | 23.45533 | 7338 ft | 244 kts | 282° |
| 2026-04-26 13:01 | 46.74546 | 23.43223 | 8144 ft | 242 kts | 304° |
| 2026-04-26 13:02 | 46.75701 | 23.41469 | 8994 ft | 242 kts | 323° |
| 2026-04-26 13:02 | 46.77226 | 23.40391 | 9926 ft | 245 kts | 335° |
| 2026-04-26 13:02 | 46.78871 | 23.39591 | 10534 ft | 257 kts | 338° |
| 2026-04-26 13:02 | 46.80622 | 23.38783 | 11018 ft | 269 kts | 338° |
| 2026-04-26 13:03 | 46.82443 | 23.37937 | 11578 ft | 280 kts | 338° |
| 2026-04-26 13:03 | 46.84330 | 23.37044 | 12137 ft | 289 kts | 338° |
| 2026-04-26 13:03 | 46.86276 | 23.36115 | 12714 ft | 298 kts | 338° |
| 2026-04-26 13:03 | 46.88268 | 23.35156 | 13385 ft | 304 kts | 338° |
| 2026-04-26 13:04 | 46.90296 | 23.34176 | 14033 ft | 310 kts | 338° |
| 2026-04-26 13:04 | 46.92359 | 23.33177 | 14635 ft | 314 kts | 338° |
| 2026-04-26 13:04 | 46.94447 | 23.32163 | 15239 ft | 317 kts | 338° |
| 2026-04-26 13:04 | 46.96528 | 23.31151 | 15853 ft | 320 kts | 338° |
| 2026-04-26 13:05 | 46.98650 | 23.30117 | 16481 ft | 323 kts | 338° |
| 2026-04-26 13:05 | 47.00770 | 23.29009 | 17125 ft | 325 kts | 335° |
| 2026-04-26 13:05 | 47.02863 | 23.27733 | 17784 ft | 327 kts | 333° |
| 2026-04-26 13:05 | 47.04964 | 23.26403 | 18441 ft | 330 kts | 333° |
| 2026-04-26 13:06 | 47.06351 | 23.25481 | 18829 ft | 330 kts | 330° |
| 2026-04-26 13:06 | 47.09021 | 23.23319 | 19608 ft | 331 kts | 327° |
| 2026-04-26 13:06 | 47.11015 | 23.21602 | 20205 ft | 332 kts | 327° |
| 2026-04-26 13:06 | 47.12614 | 23.20184 | 20748 ft | 333 kts | 326° |